METAR Data
IDs: Format: Raw Decoded Include TAF

Data at: 0240 UTC 25 Jan 2020

PASM 250202Z AUTO 03012G19KT 5SM BR SCT005 M23/M25 A3014 RMK AO2 SLP222 T12281250 FZRANO
PASM 250141Z AUTO 02016G22KT 5SM HZ FEW006 M22/M25 A3014 RMK AO2 FZRANO
PASM 250102Z AUTO 02013G18KT 10SM CLR M22/M24 A3013 RMK AO2 SLP221 T12221244 FZRANO
PASM 250002Z AUTO 01016KT 10SM CLR M22/M25 A3013 RMK AO2 SLP219 60000 T12221250 11217 21244 58001 FZRANO
PASM 242302Z AUTO 01008KT 10SM CLR M22/M24 A3015 RMK AO2 SLP228 T12171244 FZRANO
PASM 242202Z AUTO 02012G17KT 10SM CLR M22/M24 A3016 RMK AO2 SLP231 T12221244 FZRANO
PASM 242102Z AUTO 02010G16KT 10SM CLR M23/M26 A3016 RMK AO2 SLP232 60000 T12281256 58004 FZRANO
PASM 242002Z AUTO 36011KT 10SM CLR M24/M26 A3015 RMK AO2 SNB1927E1941 SLP228 P0000 T12391261 FZRANO
PASM 241902Z AUTO 02011KT 10SM CLR M24/M27 A3016 RMK AO2 SLP231 T12441267 FZRANO
PASM 241802Z AUTO 34010KT 10SM CLR M24/M26 A3016 RMK AO2 SLP230 T12391261 11222 21239 50005 FZRANO
PASM 241702Z AUTO 36015KT 10SM CLR M23/M25 A3017 RMK AO2 SLP231 T12281250 FZRANO
PASM 241602Z AUTO 01007KT 10SM CLR M23/M26 A3017 RMK AO2 SLP231 T12331256 FZRANO
PASM 241502Z AUTO 02005KT 10SM CLR M24/M26 A3015 RMK AO2 SLP227 60000 T12391261 58007 FZRANO
PASM 241402Z AUTO 05006KT 10SM CLR M23/M25 A3015 RMK AO2 SLP226 T12281250 FZRANO
PASM 241302Z AUTO 01009KT 10SM CLR M23/M24 A3016 RMK AO2 SLP230 T12281244 FZRANO
PASM 241202Z AUTO 02008KT 10SM CLR M23/M25 A3017 RMK AO2 SNB11101132E1153 SLP233 P0000 60000 T12281250 11217 21250 56003 FZRANO
PASM 241144Z AUTO 02009KT 9SM -SN SCT003 M23/M25 A3017 RMK AO2 SNB1032 P0000 FZRANO
PASM 241133Z AUTO 01011KT 5SM -SN BR BKN003 M23/M25 A3018 RMK AO2 SNB1032 P0000 FZRANO
PASM 241114Z AUTO 03006KT 2 1/2SM -SN BR BKN003 M23/M25 A3018 RMK AO2 SNB1032 P0000 FZRANO
PASM 241102Z AUTO 03006KT 5SM -SN BR FEW003 M25/M27 A3018 RMK AO2 SNB1032 P0000 FZRANO
PASM 241002Z AUTO 36006KT 10SM CLR M24/M26 A3019 RMK AO2 SNB0905E0924 SLP239 P0000 T12441261 FZRANO
PASM 240902Z AUTO 01007KT 10SM CLR M22/M24 A3019 RMK AO2 SLP238 60000 T12171239 51001 FZRANO
PASM 240802Z AUTO 36010KT 10SM CLR M21/M23 A3018 RMK AO2 SLP234 T12061228 412061206 FZRANO
PASM 240702Z AUTO 36011KT 10SM CLR M19/M21 A3018 RMK AO2 SLP235 T11891206 FZRANO
PASM 240615Z AUTO 35011KT 10SM SCT022 M18/M20 A3017 RMK AO2 FZRANO
PASM 240602Z AUTO 34012KT 10SM BKN020 M17/M19 A3018 RMK AO2 SLP235 60000 T11721189 11156 21172 51008 FZRANO
PASM 240525Z AUTO 34009KT 10SM OVC018 M16/M17 A3018 RMK AO2 FZRANO
PASM 240502Z AUTO 36008KT 10SM OVC014 M16/M17 A3018 RMK AO2 SNB0423E0435 SLP234 P0000 T11561172 FZRANO
PASM 240423Z AUTO 36004KT 10SM -SN OVC014 M16/M18 A3018 RMK AO2 SNB23 P0000 FZRANO
PASM 240402Z AUTO 02003KT 10SM FEW007 OVC016 M16/M17 A3018 RMK AO2 SLP233 T11561172 FZRANO
PASM 240355Z AUTO 36005KT 10SM SCT007 OVC016 M16/M17 A3018 RMK AO2 FZRANO
PASM 240302Z AUTO 35007KT 9SM OVC009 M17/M18 A3017 RMK AO2 SNB0226E0258 SLP230 P0000 60000 T11671178 53003 FZRANO
PASM 240244Z AUTO 36004KT 9SM -SN BKN009 OVC035 M17/M18 A3016 RMK AO2 SNB26 P0000 FZRANO
PASM 240225Z AUTO 00000KT 10SM SCT007 OVC035 M17/M19 A3015 RMK AO2 FZRANO
PASM 240214Z AUTO 35003KT 10SM BKN007 OVC035 M16/M18 A3015 RMK AO2 FZRANO
PASM 240202Z AUTO 01003KT 10SM SCT007 OVC035 M16/M18 A3015 RMK AO2 SNE0108 SLP226 P0000 T11611178 FZRANO
PASM 240127Z AUTO 02004KT 10SM SCT009 M16/M18 A3014 RMK AO2 SNE08 P0000 FZRANO
PASM 240102Z AUTO 01006KT 9SM -SN OVC009 M16/M17 A3014 RMK AO2 SLP223 P0000 T11561172 FZRANO
PASM 240026Z AUTO 36009KT 3SM -SN BR OVC007 M16/M17 A3014 RMK AO2 P0000 FZRANO
PASM 240018Z AUTO 36010KT 1 3/4SM -SN BR OVC007 M16/M17 A3015 RMK AO2 CIG 007V010 P0000 FZRANO
PASM 240002Z AUTO 36010KT 8SM -SN OVC007 M16/M17 A3014 RMK AO2 SLP223 P0000 60000 T11561172 11156 21172 51013 FZRANO
PASM 232302Z AUTO 32009KT 9SM -SN OVC009 M16/M17 A3014 RMK AO2 SLP221 P0000 T11561172 FZRANO
PASM 232202Z AUTO 31009KT 9SM -SN OVC009 M16/M17 A3014 RMK AO2 SNB2104 SLP220 P0000 T11561172 FZRANO
PASM 232102Z AUTO 36004KT 9SM OVC009 M16/M18 A3012 RMK AO2 SNB2021E02 SLP214 P0000 60000 T11611178 51015 FZRANO
PASM 232002Z AUTO 03003KT 10SM OVC009 M17/M18 A3010 RMK AO2 SNE1946 SLP209 P0000 T11671178 FZRANO
PASM 231933Z AUTO 35005KT 9SM -SN OVC009 M17/M19 A3010 RMK AO2 P0000 FZRANO
PASM 231902Z AUTO 33007KT 9SM -SN BKN013 M17/M18 A3009 RMK AO2 SNB1830 SLP204 P0000 T11671183 FZRANO
PASM 231802Z AUTO 33005KT 10SM OVC013 M16/M18 A3008 RMK AO2 SLP200 60000 T11561178 11156 21161 51007 FZRANO
PASM 231702Z AUTO 31009KT 10SM OVC013 M16/M17 A3006 RMK AO2 SNE1648 SLP194 P0000 T11561172 FZRANO
PASM 231602Z AUTO 30007KT 9SM -SN OVC013 M16/M18 A3006 RMK AO2 SLP192 P0000 T11561178 FZRANO
PASM 231502Z AUTO 34008KT 9SM -SN OVC011 M16/M18 A3005 RMK AO2 SLP190 P0000 60000 T11611178 52016 FZRANO